< Typhoon 198410 1984 Season Typhoon 198412 >
Typhoon 198411 (IKE)
General InformationTrack Information on Google MapsDetailed Wind InformationList of All Images || Disaster Info.ResourceGoogle EarthGE AnimationAtom FeedGeoJSON
Detalied Best Track (Time Zone = UTC)
Year Month Day Hour Lat. Long. Pressure (hPa) Wind (kt) Class Image Chart
1984 8 26 06 9.0 149.0 1006 0 2 Image Chart
1984 8 26 12 9.5 147.6 1004 0 2 Image Chart
1984 8 26 18 10.0 146.3 1002 0 2 Image Chart
1984 8 27 00 10.7 145.3 1000 0 2 Image Chart
1984 8 27 06 11.4 144.4 998 35 3 Image Chart
1984 8 27 12 12.0 143.8 998 35 3 Image Chart
1984 8 27 18 12.6 143.1 998 35 3 Image Chart
1984 8 28 00 13.2 142.4 996 40 3 Image Chart
1984 8 28 06 13.7 141.8 996 40 3 Image Chart
1984 8 28 12 13.2 141.4 994 40 3 Image Chart
1984 8 28 18 12.5 141.0 992 45 3 Image Chart
1984 8 29 00 12.3 140.4 990 45 3 Image Chart
1984 8 29 06 12.2 139.8 990 45 3 Image Chart
1984 8 29 12 12.0 139.0 990 45 3 Image Chart
1984 8 29 18 11.5 138.5 985 50 4 Image Chart
1984 8 30 00 11.0 137.9 985 50 4 Image Chart
1984 8 30 06 10.8 137.1 985 50 4 Image Chart
1984 8 30 12 10.6 136.3 980 55 4 Image Chart
1984 8 30 18 10.2 135.5 975 55 4 Image Chart
1984 8 31 00 10.2 134.5 970 60 4 Image Chart
1984 8 31 06 10.2 133.3 965 65 5 Image Chart
1984 8 31 12 10.0 132.0 960 70 5 Image Chart
1984 8 31 18 9.8 130.6 960 75 5 Image Chart
1984 9 1 00 9.7 129.6 955 85 5 Image Chart
1984 9 1 06 9.5 128.0 950 90 5 Image Chart
1984 9 1 12 9.3 126.8 950 90 5 Image Chart
1984 9 1 18 9.7 125.5 955 90 5 Image Chart
1984 9 2 00 10.0 124.3 965 75 5 Image Chart
1984 9 2 06 10.4 123.2 970 60 4 Image Chart
1984 9 2 12 10.8 122.2 980 55 4 Image Chart
1984 9 2 18 11.5 121.2 985 50 4 Image Chart
1984 9 3 00 12.1 120.3 992 45 3 Image Chart
1984 9 3 06 12.8 119.5 990 45 3 Image Chart
1984 9 3 12 13.9 118.3 985 50 4 Image Chart
1984 9 3 18 14.5 117.5 985 50 4 Image Chart
1984 9 4 00 15.1 116.5 980 55 4 Image Chart
1984 9 4 06 16.0 115.4 975 60 4 Image Chart
1984 9 4 12 16.7 114.4 960 70 5 Image Chart
1984 9 4 18 17.5 113.1 955 90 5 Image Chart
1984 9 5 00 18.3 112.0 955 90 5 Image Chart
1984 9 5 06 19.1 111.1 960 80 5 Image Chart
1984 9 5 12 20.2 110.0 975 60 4 Image Chart
1984 9 5 18 21.0 109.2 980 50 4 Image Chart
1984 9 6 00 21.8 108.7 980 50 4 Image Chart
1984 9 6 06 22.6 108.1 990 35 3 Image Chart
1984 9 6 12 23.7 107.2 996 0 2 Image Chart
1984 9 6 18 25.0 106.9 1004 0 2 Image Chart
Japan Meteorological Agency Best Track Data | Correction Date : 1992-10-21
< Typhoon 198410 1984 Season Typhoon 198412 >

Help